Aviation Digital Data Service (ADDS)

Output produced by METARs form (0442 UTC 22 April 2018)
found at http://aviationweather.gov/adds/metars/
 
METAR text: KBAB 220358Z AUTO 10007KT 10SM CLR 18/11 A2998 RMK AO2 SLP155 T01800113 $
Conditions at: KBAB (BEALE AFB/MARYSV, CA, US) observed 0358 UTC 22 April 2018
Temperature: 18.0°C (64°F)
Dewpoint: 11.3°C (52°F) [RH = 65%]
Pressure (altimeter): 29.98 inches Hg (1015.3 mb)
[Sea-level pressure: 1015.5 mb]
Winds: from the E (100 degrees) at 8 MPH (7 knots; 3.6 m/s)
Visibility: 10 or more miles (16+ km)
Ceiling: at least 12,000 feet AGL
Clouds: sky clear below 12,000 feet AGL
Weather:
SOME DATA ABOVE MAY BE INACCURATE!!!
"$" is an indication the sensor requires maintenance

Forecast for: KBAB (BEALE AFB/MARYSV, CA, US)
Text: TAF KBAB 210303Z 2103/2209 VRB06KT 9999 FEW100 QNH3002INS TX25/2123Z TN12/2112Z LAST NO AMDS AFT 2105 NEXT 2311
Forecast period: 0300 UTC 21 April 2018 to 0900 UTC 22 April 2018
Forecast type: FROM: standard forecast or significant change
Winds: variable direction winds at 7 MPH (6 knots; 3.1 m/s)
Visibility: 6 or more miles (10+ km)
Clouds: few clouds at 10000 feet AGL
Weather: no significant weather forecast for this period
Forecast for: KBAB (BEALE AFB/MARYSV, CA, US)
Text: TAF KBAB 210303Z 2103/2209 VRB06KT 9999 FEW100 QNH3002INS TX25/2123Z TN12/2112Z LAST NO AMDS AFT 2105 NEXT 2311
Forecast period: 0300 UTC 21 April 2018 to 0900 UTC 22 April 2018
Forecast type: FROM: standard forecast or significant change
Winds: variable direction winds at 7 MPH (6 knots; 3.1 m/s)
Visibility: 6 or more miles (10+ km)
Clouds: few clouds at 10000 feet AGL
Weather: no significant weather forecast for this period